createdAt,value
2019-03-17T00:01:12.193Z,3.73
2019-03-17T00:03:41.088Z,3.64
2019-03-17T00:06:10.295Z,3.60
2019-03-17T00:08:39.469Z,3.57
2019-03-17T00:11:08.807Z,3.50
2019-03-17T00:13:37.937Z,3.46
2019-03-17T00:16:07.352Z,3.51
2019-03-17T00:18:36.497Z,3.55
2019-03-17T00:21:05.685Z,3.55
2019-03-17T00:23:34.833Z,3.61
2019-03-17T00:26:04.220Z,3.51
2019-03-17T00:28:33.347Z,3.53
2019-03-17T00:31:02.543Z,3.53
2019-03-17T00:33:31.935Z,3.44
2019-03-17T00:36:01.270Z,3.41
2019-03-17T00:38:30.421Z,3.34
2019-03-17T00:40:59.674Z,3.33
2019-03-17T00:43:28.850Z,3.27
2019-03-17T00:45:58.140Z,3.22
2019-03-17T00:48:27.398Z,3.18
2019-03-17T00:50:56.526Z,3.16
2019-03-17T00:53:25.702Z,3.14
2019-03-17T00:55:54.831Z,3.13
2019-03-17T00:58:23.985Z,3.08
2019-03-17T01:00:53.110Z,3.08
2019-03-17T01:03:22.342Z,3.04
2019-03-17T01:05:51.503Z,2.94
2019-03-17T18:01:28.600Z,6.29
2019-03-17T18:03:57.750Z,6.25
2019-03-17T18:06:26.923Z,6.25
2019-03-17T18:08:56.093Z,6.28
2019-03-17T18:11:25.328Z,6.29
2019-03-17T18:13:54.539Z,6.34
2019-03-17T18:16:23.726Z,6.28
2019-03-17T18:18:52.880Z,6.27
2019-03-17T18:21:22.045Z,6.24
2019-03-17T18:23:51.338Z,6.20
2019-03-17T18:26:20.600Z,6.21
2019-03-17T18:28:49.768Z,6.15
2019-03-17T18:31:18.977Z,6.16
2019-03-17T18:33:51.453Z,6.06
2019-03-17T18:36:20.632Z,6.03
2019-03-17T18:38:49.787Z,6.02
2019-03-17T18:41:18.975Z,5.98
2019-03-17T18:43:48.239Z,5.96
2019-03-17T18:46:17.390Z,5.95
2019-03-17T18:48:46.557Z,5.94
2019-03-17T18:51:15.755Z,5.97
2019-03-17T18:53:45.007Z,5.99
2019-03-17T18:56:14.206Z,6.02
2019-03-17T18:58:43.410Z,6.00
2019-03-17T19:01:12.786Z,6.00
2019-03-17T19:03:41.983Z,6.02
2019-03-17T19:06:11.171Z,5.95
2019-03-17T19:08:40.503Z,5.94
2019-03-17T19:11:09.726Z,5.92
2019-03-17T19:13:38.973Z,5.94
2019-03-17T19:16:08.180Z,5.90
2019-03-17T19:18:37.373Z,5.88
2019-03-17T19:21:06.611Z,5.84
2019-03-17T19:23:35.875Z,5.84
2019-03-17T19:26:05.099Z,5.84
2019-03-17T19:28:34.282Z,5.87
2019-03-17T19:31:03.471Z,5.86
2019-03-17T19:33:33.044Z,5.83
2019-03-17T19:36:02.274Z,5.80
2019-03-17T19:38:31.470Z,5.76
2019-03-17T19:41:02.104Z,5.72
2019-03-17T19:43:31.444Z,5.63
2019-03-17T19:46:00.883Z,5.66
2019-03-17T19:48:30.097Z,5.67
2019-03-17T19:50:59.379Z,5.63
2019-03-17T19:53:28.641Z,5.63
2019-03-17T19:55:57.919Z,5.64
2019-03-17T19:58:27.131Z,5.60
2019-03-17T20:00:56.473Z,5.62
2019-03-17T20:03:25.638Z,5.60
2019-03-17T20:06:02.200Z,5.55
2019-03-17T20:08:26.039Z,5.54
2019-03-17T20:10:55.297Z,5.52
2019-03-17T20:13:24.467Z,5.59
2019-03-17T20:15:53.783Z,5.45
2019-03-17T20:18:22.981Z,5.45
2019-03-17T20:20:52.200Z,5.33
2019-03-17T20:23:21.717Z,5.33
2019-03-17T20:25:51.037Z,5.26
2019-03-17T20:28:20.285Z,5.29
2019-03-17T20:30:49.532Z,5.36
2019-03-17T20:33:18.833Z,5.40
2019-03-17T20:35:48.270Z,5.52
2019-03-17T20:38:17.490Z,5.52
2019-03-17T20:40:46.651Z,5.60
2019-03-17T20:43:29.285Z,5.60
2019-03-17T20:45:46.872Z,5.60
2019-03-17T20:48:16.281Z,5.61
2019-03-17T20:50:45.546Z,5.63
2019-03-17T20:53:14.806Z,5.64
2019-03-17T20:55:43.968Z,5.60
2019-03-17T20:58:13.228Z,5.64
2019-03-17T21:00:42.395Z,5.62
2019-03-17T21:03:11.609Z,5.55
2019-03-17T21:05:40.917Z,5.55
2019-03-17T21:08:10.159Z,5.49
2019-03-17T21:10:39.382Z,5.48
2019-03-17T21:13:08.573Z,5.46
2019-03-17T21:15:37.757Z,5.49
2019-03-17T21:18:06.926Z,5.39
2019-03-17T21:20:36.144Z,5.29
2019-03-17T21:23:05.354Z,5.24
2019-03-17T21:25:34.579Z,5.12
2019-03-17T21:28:03.807Z,5.11
2019-03-17T21:30:33.040Z,5.04
2019-03-17T21:33:02.226Z,4.98
2019-03-17T21:35:31.443Z,4.94
2019-03-17T21:38:00.617Z,4.86
2019-03-17T21:40:30.842Z,4.81
2019-03-17T21:43:00.024Z,4.77
2019-03-17T21:45:29.214Z,4.73
2019-03-17T21:47:58.404Z,4.67
2019-03-17T21:50:27.621Z,4.68
2019-03-17T21:52:56.764Z,4.60
2019-03-17T21:55:25.967Z,4.60
2019-03-17T21:57:55.337Z,4.57
2019-03-17T22:00:24.646Z,4.63
2019-03-17T22:02:55.210Z,4.59
2019-03-17T22:05:24.577Z,4.53
2019-03-17T22:07:53.719Z,4.56
2019-03-17T22:10:23.046Z,4.52
2019-03-17T22:12:52.320Z,4.54
2019-03-17T22:15:21.509Z,4.49
2019-03-17T22:17:50.696Z,4.47
2019-03-17T22:20:19.850Z,4.48
2019-03-17T22:22:48.989Z,4.45
2019-03-17T22:25:18.147Z,4.44
2019-03-17T22:27:47.345Z,4.42
2019-03-17T22:30:16.572Z,4.25
2019-03-17T22:32:45.949Z,4.29
2019-03-17T22:35:15.087Z,4.32
2019-03-17T22:37:44.299Z,4.34
2019-03-17T22:40:13.449Z,4.32
2019-03-17T22:42:42.610Z,4.28
2019-03-17T22:45:12.150Z,4.22
2019-03-17T22:47:41.347Z,4.18
2019-03-17T22:50:11.034Z,4.14
2019-03-17T22:52:40.218Z,4.07
2019-03-17T22:55:09.602Z,4.01
2019-03-17T22:57:38.745Z,3.94
2019-03-17T23:00:10.309Z,3.92
2019-03-17T23:02:39.538Z,3.84
2019-03-17T23:05:08.915Z,3.83
2019-03-17T23:07:38.396Z,3.78
2019-03-17T23:10:08.496Z,3.78
2019-03-17T23:12:37.712Z,3.77
2019-03-17T23:15:07.228Z,3.68
2019-03-17T23:17:36.366Z,3.75
2019-03-17T23:20:05.981Z,3.70
2019-03-17T23:22:35.163Z,3.69
2019-03-17T23:25:04.411Z,3.77
2019-03-17T23:27:33.673Z,3.87
2019-03-17T23:30:02.817Z,3.87
2019-03-17T23:32:31.938Z,3.92
2019-03-17T23:35:01.098Z,3.89
2019-03-17T23:37:30.238Z,3.91
2019-03-17T23:39:59.366Z,3.92
2019-03-17T23:42:28.530Z,3.87
2019-03-17T23:44:57.670Z,3.84
2019-03-17T23:47:26.769Z,3.80
2019-03-17T23:49:55.909Z,3.87
2019-03-17T23:52:25.098Z,3.84
2019-03-17T23:54:54.235Z,3.85
2019-03-17T23:57:23.389Z,3.87
2019-03-17T23:59:52.542Z,3.83
